createdAt,value
2022-12-22T00:01:23.166Z,6.97
2022-12-22T00:04:27.909Z,3.50
2022-12-22T00:07:31.537Z,7.23
2022-12-22T00:10:35.597Z,3.47
2022-12-22T00:13:39.662Z,9.00
2022-12-22T00:16:48.349Z,4.40
2022-12-22T00:19:52.146Z,5.10
2022-12-22T00:22:55.635Z,11.60
2022-12-22T00:25:59.770Z,3.77
2022-12-22T00:29:03.717Z,3.57
2022-12-22T00:32:09.019Z,3.13
2022-12-22T00:35:12.696Z,5.53
2022-12-22T00:38:16.731Z,5.57
2022-12-22T00:41:20.737Z,4.80
2022-12-22T00:44:24.533Z,11.17
2022-12-22T00:47:31.394Z,5.20
2022-12-22T00:50:35.796Z,5.13
2022-12-22T00:53:41.037Z,4.20
2022-12-22T00:56:45.028Z,5.57
2022-12-22T00:59:48.660Z,3.07
2022-12-22T01:02:54.448Z,3.80
2022-12-22T01:05:58.554Z,7.03
2022-12-22T01:09:02.487Z,3.43
2022-12-22T01:12:05.862Z,6.77
2022-12-22T01:15:09.742Z,5.75
2022-12-22T01:18:14.884Z,3.93
2022-12-22T01:21:18.742Z,2.43
2022-12-22T01:24:24.502Z,3.53
2022-12-22T01:27:28.322Z,3.90
2022-12-22T01:30:31.946Z,7.20
2022-12-22T01:33:38.540Z,2.87
2022-12-22T01:36:42.533Z,4.43
2022-12-22T01:39:46.417Z,5.00
2022-12-22T01:42:52.005Z,4.50
2022-12-22T01:45:56.886Z,4.17
2022-12-22T01:49:02.090Z,2.70
2022-12-22T01:52:05.844Z,5.83
2022-12-22T01:55:10.618Z,18.70
2022-12-22T01:58:14.572Z,3.80
2022-12-22T02:01:18.720Z,3.77
2022-12-22T02:04:24.306Z,2.07
2022-12-22T02:07:33.224Z,3.90
2022-12-22T02:10:41.604Z,4.00
2022-12-22T02:13:50.918Z,4.33
2022-12-22T02:16:58.253Z,5.23
2022-12-22T02:20:16.838Z,6.03
2022-12-22T02:23:25.773Z,8.27
2022-12-22T02:26:44.706Z,3.57
2022-12-22T02:29:52.370Z,3.27
2022-12-22T02:32:57.460Z,5.03
2022-12-22T02:36:04.598Z,2.90
2022-12-22T02:39:13.415Z,4.67
2022-12-22T02:42:20.676Z,3.70
2022-12-22T02:45:32.464Z,4.60
2022-12-22T02:48:40.529Z,8.30
2022-12-22T02:51:46.029Z,7.23
2022-12-22T02:54:51.132Z,4.37
2022-12-22T02:57:54.817Z,2.63
2022-12-22T03:01:00.262Z,3.03
2022-12-22T03:04:04.446Z,3.07
2022-12-22T03:07:08.175Z,3.83
2022-12-22T03:10:12.443Z,3.00
2022-12-22T03:13:17.587Z,5.83
2022-12-22T03:16:23.152Z,4.53
2022-12-22T03:19:27.177Z,4.70
2022-12-22T03:22:30.801Z,3.53
2022-12-22T03:25:34.520Z,2.37
2022-12-22T03:28:22.017Z,2.63
2022-12-22T03:31:10.109Z,3.97
2022-12-22T03:33:56.547Z,4.43
2022-12-22T03:36:43.213Z,2.53
2022-12-22T03:39:30.607Z,2.57
2022-12-22T03:42:34.635Z,2.60
2022-12-22T03:45:38.571Z,4.10
2022-12-22T03:48:26.239Z,3.47
2022-12-22T03:51:12.796Z,4.63
2022-12-22T03:53:58.893Z,2.57
2022-12-22T03:56:45.444Z,4.73
2022-12-22T03:59:32.537Z,2.73
2022-12-22T04:02:18.634Z,2.97
2022-12-22T04:05:07.192Z,5.27
2022-12-22T04:07:53.322Z,5.80
2022-12-22T04:10:56.887Z,6.80
2022-12-22T04:13:43.330Z,4.30
2022-12-22T04:16:29.629Z,2.63
2022-12-22T04:19:16.468Z,4.75
2022-12-22T04:22:04.246Z,5.00
2022-12-22T04:24:50.678Z,2.23
2022-12-22T04:27:36.781Z,3.10
2022-12-22T04:30:23.043Z,5.03
2022-12-22T04:33:09.794Z,3.55
2022-12-22T04:35:56.025Z,3.47
2022-12-22T04:38:43.685Z,7.37
2022-12-22T04:41:30.123Z,2.87
2022-12-22T04:44:16.356Z,2.95
2022-12-22T04:47:02.624Z,1.77
2022-12-22T04:49:48.935Z,2.93
2022-12-22T04:52:35.165Z,2.40
2022-12-22T04:55:22.824Z,3.60
2022-12-22T04:58:09.421Z,3.60
2022-12-22T05:00:56.179Z,3.83
2022-12-22T05:03:42.843Z,1.70
2022-12-22T05:06:29.565Z,2.10
2022-12-22T05:09:16.178Z,3.47
2022-12-22T05:12:25.027Z,1.93
2022-12-22T05:15:11.709Z,7.00
2022-12-22T05:17:58.780Z,2.47
2022-12-22T05:20:45.658Z,4.70
2022-12-22T05:23:32.288Z,2.85
2022-12-22T05:26:19.939Z,2.70
2022-12-22T05:29:07.569Z,1.83
2022-12-22T05:31:54.053Z,2.77
2022-12-22T05:34:40.368Z,2.87
2022-12-22T05:37:27.030Z,3.92
2022-12-22T05:40:13.353Z,8.02
2022-12-22T05:42:59.792Z,3.85
2022-12-22T05:45:48.027Z,2.58
2022-12-22T05:48:38.650Z,2.10
2022-12-22T05:51:25.576Z,2.63
2022-12-22T05:54:12.030Z,2.53
2022-12-22T05:56:58.148Z,2.40
2022-12-22T05:59:44.332Z,2.22
2022-12-22T06:02:32.246Z,4.43
2022-12-22T06:05:18.772Z,4.70
2022-12-22T06:08:05.633Z,6.22
2022-12-22T06:10:52.000Z,3.53
2022-12-22T06:13:38.491Z,2.38
2022-12-22T06:16:25.117Z,3.20
2022-12-22T06:19:12.911Z,4.32
2022-12-22T06:21:59.473Z,2.73
2022-12-22T06:24:46.074Z,3.97
2022-12-22T06:27:32.253Z,15.40
2022-12-22T06:30:18.982Z,2.93
2022-12-22T06:33:05.389Z,3.00
2022-12-22T06:35:58.472Z,4.03
2022-12-22T06:38:45.580Z,5.03
2022-12-22T06:41:49.215Z,6.40
2022-12-22T06:44:35.939Z,3.77
2022-12-22T06:47:22.565Z,3.93
2022-12-22T06:50:09.373Z,11.20
2022-12-22T06:52:57.684Z,9.23
2022-12-22T06:55:43.946Z,5.83
2022-12-22T06:58:30.221Z,4.00
2022-12-22T07:01:16.550Z,5.03
2022-12-22T07:04:02.826Z,6.30
2022-12-22T07:06:49.549Z,5.63
2022-12-22T07:09:37.171Z,4.93
2022-12-22T07:12:23.663Z,6.33
2022-12-22T07:15:11.115Z,3.93
2022-12-22T07:17:57.585Z,7.30
2022-12-22T07:20:43.834Z,16.43
2022-12-22T07:23:30.414Z,9.20
2022-12-22T07:26:18.296Z,9.60
2022-12-22T07:29:04.579Z,19.17
2022-12-22T07:31:50.921Z,11.50
2022-12-22T07:34:37.635Z,14.50
2022-12-22T07:37:23.791Z,22.23
2022-12-22T07:40:10.618Z,12.53
2022-12-22T07:42:58.865Z,11.67
2022-12-22T07:45:45.387Z,15.00
2022-12-22T07:48:50.550Z,14.93
2022-12-22T07:51:38.216Z,19.10
2022-12-22T07:54:24.949Z,13.37
2022-12-22T07:57:11.453Z,10.97
2022-12-22T07:59:59.041Z,9.13
2022-12-22T08:02:49.953Z,16.77
2022-12-22T08:05:38.347Z,15.37
2022-12-22T08:08:24.953Z,15.67
2022-12-22T08:11:11.690Z,16.07
2022-12-22T08:16:49.600Z,16.47
2022-12-22T08:19:35.939Z,18.17
2022-12-22T08:22:23.947Z,15.37
2022-12-22T08:27:58.388Z,9.17
2022-12-22T08:33:33.673Z,17.53
2022-12-22T08:36:20.193Z,10.70
2022-12-22T09:01:27.935Z,8.40
2022-12-22T09:07:04.773Z,7.07
2022-12-22T09:12:38.099Z,14.20
2022-12-22T09:15:24.707Z,11.93
2022-12-22T09:18:11.314Z,13.03
2022-12-22T09:20:57.450Z,12.30
2022-12-22T09:23:45.148Z,17.00
2022-12-22T09:40:28.873Z,9.73
2022-12-22T09:48:51.689Z,12.73
2022-12-22T09:54:31.100Z,8.93
2022-12-22T09:57:18.889Z,7.40
2022-12-22T10:03:03.166Z,9.17
2022-12-22T10:05:52.426Z,9.60
2022-12-22T10:17:17.063Z,13.37
2022-12-22T10:55:16.126Z,12.83
2022-12-22T11:42:37.708Z,16.77
2022-12-22T12:10:46.018Z,24.30
2022-12-22T12:56:05.602Z,24.13
2022-12-22T13:01:55.178Z,24.00
2022-12-22T13:05:15.850Z,20.50
2022-12-22T13:26:34.407Z,24.20
2022-12-22T13:38:27.923Z,26.67
2022-12-22T13:41:20.039Z,36.20
2022-12-22T13:44:12.412Z,50.13
2022-12-22T13:47:03.718Z,28.83
2022-12-22T13:50:08.314Z,27.30
2022-12-22T13:52:56.321Z,152.43
2022-12-22T13:55:46.607Z,60.90
2022-12-22T13:58:35.806Z,22.63
2022-12-22T14:04:19.685Z,24.93
2022-12-22T14:07:12.748Z,34.07
2022-12-22T14:09:59.248Z,33.53
2022-12-22T14:15:35.126Z,23.60
2022-12-22T14:18:25.867Z,27.33
2022-12-22T14:29:39.783Z,29.30
2022-12-22T14:32:36.908Z,30.20
2022-12-22T14:35:26.639Z,26.23
2022-12-22T14:38:22.996Z,27.50
2022-12-22T14:41:38.908Z,195.50
2022-12-22T14:44:26.940Z,266.50
2022-12-22T14:47:16.204Z,310.20
2022-12-22T14:50:04.347Z,111.43
2022-12-22T14:52:52.174Z,57.20
2022-12-22T14:55:41.670Z,103.20
2022-12-22T14:58:31.357Z,160.30
2022-12-22T15:01:23.596Z,63.93
2022-12-22T15:04:17.475Z,56.90
2022-12-22T15:07:10.227Z,210.60
2022-12-22T15:10:15.580Z,140.20
2022-12-22T15:13:05.809Z,179.93
2022-12-22T15:15:53.732Z,207.00
2022-12-22T15:18:40.221Z,92.60
2022-12-22T15:21:26.396Z,72.63
2022-12-22T15:24:13.406Z,67.63
2022-12-22T15:26:59.902Z,130.00
2022-12-22T15:29:46.008Z,480.73
2022-12-22T15:32:37.814Z,353.47
2022-12-22T15:35:27.038Z,158.60
2022-12-22T15:38:14.825Z,99.97
2022-12-22T15:41:01.143Z,155.93
2022-12-22T15:43:57.921Z,188.83
2022-12-22T15:46:46.150Z,172.53
2022-12-22T15:49:33.965Z,133.53
2022-12-22T15:52:20.439Z,94.97
2022-12-22T15:55:07.894Z,159.30
2022-12-22T15:57:56.699Z,69.70
2022-12-22T16:03:30.451Z,45.63
2022-12-22T16:06:20.199Z,46.03
2022-12-22T16:09:08.596Z,56.80
2022-12-22T16:11:55.380Z,50.87
2022-12-22T16:14:48.072Z,48.47
2022-12-22T16:17:36.580Z,28.17
2022-12-22T16:20:22.757Z,68.00
2022-12-22T16:23:14.524Z,26.77
2022-12-22T16:26:02.523Z,20.70
2022-12-22T16:28:49.282Z,29.43
2022-12-22T16:31:35.837Z,28.53
2022-12-22T16:34:22.451Z,30.37
2022-12-22T16:37:08.973Z,27.97
2022-12-22T16:39:57.064Z,37.70
2022-12-22T16:45:50.989Z,30.40
2022-12-22T16:48:40.760Z,25.70
2022-12-22T16:51:28.116Z,20.33
2022-12-22T16:54:14.661Z,42.33
2022-12-22T16:57:05.338Z,70.87
2022-12-22T16:59:51.754Z,69.97
2022-12-22T17:02:38.411Z,38.63
2022-12-22T17:05:28.937Z,34.13
2022-12-22T17:08:21.988Z,27.50
2022-12-22T17:11:11.389Z,30.83
2022-12-22T17:14:03.987Z,27.40
2022-12-22T17:16:50.683Z,32.03
2022-12-22T17:19:37.028Z,36.17
2022-12-22T17:22:24.762Z,22.93
2022-12-22T17:25:16.204Z,28.97
2022-12-22T17:28:03.460Z,23.90
2022-12-22T17:30:51.001Z,34.37
2022-12-22T17:33:37.509Z,44.80
2022-12-22T17:36:29.870Z,28.03
2022-12-22T17:39:17.073Z,32.23
2022-12-22T17:42:03.259Z,36.17
2022-12-22T17:44:51.260Z,74.13
2022-12-22T17:47:42.794Z,37.90
2022-12-22T17:50:29.612Z,34.33
2022-12-22T17:53:18.824Z,36.67
2022-12-22T17:56:08.366Z,63.10
2022-12-22T17:58:55.409Z,50.80
2022-12-22T18:01:41.951Z,51.60
2022-12-22T18:04:29.869Z,30.90
2022-12-22T18:07:19.341Z,39.77
2022-12-22T18:10:06.462Z,49.87
2022-12-22T18:12:53.068Z,17.80
2022-12-22T18:15:39.535Z,50.60
2022-12-22T18:18:25.776Z,30.93
2022-12-22T18:21:16.231Z,54.03
2022-12-22T18:24:03.587Z,106.67
2022-12-22T18:26:49.912Z,65.87
2022-12-22T18:29:37.931Z,94.53
2022-12-22T18:32:27.915Z,65.60
2022-12-22T18:35:14.845Z,49.07
2022-12-22T18:38:02.667Z,42.77
2022-12-22T18:40:49.189Z,49.67
2022-12-22T18:43:35.486Z,48.80
2022-12-22T18:46:22.238Z,65.57
2022-12-22T18:49:08.870Z,48.97
2022-12-22T18:51:55.388Z,72.17
2022-12-22T18:54:43.102Z,229.70
2022-12-22T18:57:29.488Z,112.40
2022-12-22T19:00:17.425Z,163.93
2022-12-22T19:03:04.181Z,124.57
2022-12-22T19:05:50.843Z,77.77
2022-12-22T19:08:43.454Z,201.03
2022-12-22T19:11:33.749Z,59.17
2022-12-22T19:14:22.013Z,56.63
2022-12-22T19:17:12.093Z,82.53
2022-12-22T19:19:59.420Z,64.73
2022-12-22T19:22:45.874Z,44.63
2022-12-22T19:25:33.143Z,72.97
2022-12-22T19:28:26.770Z,85.13
2022-12-22T19:31:20.232Z,42.30
2022-12-22T19:34:08.031Z,34.73
2022-12-22T19:36:54.797Z,48.07
2022-12-22T19:39:41.261Z,42.73
2022-12-22T19:42:28.033Z,24.67
2022-12-22T19:45:22.191Z,25.10
2022-12-22T19:48:16.044Z,25.37
2022-12-22T19:51:02.353Z,31.27
2022-12-22T19:53:48.547Z,30.40
2022-12-22T19:56:36.275Z,37.37
2022-12-22T19:59:29.680Z,23.90
2022-12-22T20:02:27.671Z,64.80
2022-12-22T20:05:27.020Z,32.30
2022-12-22T20:08:13.257Z,31.17
2022-12-22T20:11:00.631Z,37.87
2022-12-22T20:13:47.949Z,25.33
2022-12-22T20:16:34.549Z,27.23
2022-12-22T20:19:22.268Z,105.97
2022-12-22T20:22:08.658Z,110.47
2022-12-22T20:24:54.953Z,57.17
2022-12-22T20:27:41.431Z,26.17
2022-12-22T20:30:28.926Z,20.13
2022-12-22T20:33:16.001Z,36.83
2022-12-22T20:36:04.426Z,22.13
2022-12-22T20:38:52.272Z,24.03
2022-12-22T20:41:38.762Z,29.33
2022-12-22T20:44:25.130Z,34.20
2022-12-22T20:47:18.705Z,37.93
2022-12-22T20:50:17.040Z,36.00
2022-12-22T20:53:05.500Z,33.30
2022-12-22T20:55:52.268Z,31.67
2022-12-22T20:58:38.394Z,48.43
2022-12-22T21:01:25.055Z,27.60
2022-12-22T21:04:11.757Z,22.97
2022-12-22T21:06:58.506Z,32.87
2022-12-22T21:09:46.476Z,28.57
2022-12-22T21:12:32.806Z,34.73
2022-12-22T21:15:19.777Z,17.23
2022-12-22T21:18:06.514Z,19.57
2022-12-22T21:20:53.115Z,15.93
2022-12-22T21:23:39.454Z,14.00
2022-12-22T21:26:30.093Z,15.33
2022-12-22T21:29:17.926Z,17.00
2022-12-22T21:32:04.255Z,11.53
2022-12-22T21:34:50.279Z,17.30
2022-12-22T21:37:36.837Z,16.03
2022-12-22T21:40:24.232Z,17.57
2022-12-22T21:43:12.381Z,16.10
2022-12-22T21:45:58.954Z,18.70
2022-12-22T21:48:45.593Z,16.60
2022-12-22T21:51:32.002Z,17.10
2022-12-22T21:54:18.908Z,15.97
2022-12-22T21:57:05.577Z,13.63
2022-12-22T21:59:53.642Z,10.73
2022-12-22T22:02:40.108Z,17.80
2022-12-22T22:05:27.921Z,18.40
2022-12-22T22:08:14.553Z,10.43
2022-12-22T22:11:00.880Z,7.53
2022-12-22T22:13:47.485Z,12.73
2022-12-22T22:16:35.048Z,13.23
2022-12-22T22:19:21.342Z,11.13
2022-12-22T22:22:07.639Z,9.80
2022-12-22T22:24:54.236Z,14.07
2022-12-22T22:27:44.344Z,14.60
2022-12-22T22:30:34.110Z,20.70
2022-12-22T22:33:22.355Z,12.17
2022-12-22T22:36:09.629Z,14.37
2022-12-22T22:38:56.256Z,17.33
2022-12-22T22:41:43.774Z,15.47
2022-12-22T22:44:30.230Z,15.13
2022-12-22T22:47:16.513Z,12.33
2022-12-22T22:50:06.910Z,10.17
2022-12-22T22:52:53.223Z,14.93
2022-12-22T22:55:39.840Z,9.43
2022-12-22T22:58:26.855Z,9.83
2022-12-22T23:01:13.362Z,6.77
2022-12-22T23:03:59.789Z,12.13
2022-12-22T23:06:47.615Z,14.63
2022-12-22T23:09:34.101Z,7.33
2022-12-22T23:12:20.756Z,9.40
2022-12-22T23:15:07.558Z,11.87
2022-12-22T23:17:53.968Z,10.53
2022-12-22T23:20:45.146Z,8.03
2022-12-22T23:23:33.943Z,8.23
2022-12-22T23:26:20.480Z,6.90
2022-12-22T23:29:06.969Z,7.23
2022-12-22T23:31:53.739Z,10.63
2022-12-22T23:34:40.427Z,8.67
2022-12-22T23:37:26.725Z,4.60
2022-12-22T23:40:50.419Z,7.23
2022-12-22T23:43:21.393Z,6.47
2022-12-22T23:46:08.335Z,7.83
2022-12-22T23:48:55.515Z,10.47
2022-12-22T23:51:42.233Z,4.93
2022-12-22T23:54:29.500Z,7.67
2022-12-22T23:57:17.050Z,6.73
